W5SDC Weather Reports


Display with metric or nautical units.
time (UTC)temp
F
wind
direction
speed
MPH
gust
MPH
rain 1hr
in
rain 24hr
in
rain mn
in
humidity
%
barometer
mb
20240523164114 84 80 7.0 16.0 0.00 0.15 0.00 84 1011.9
20240523163522 84 115 8.0 12.0 0.00 0.15 0.00 85 1012.1
20240523163048 83 62 7.0 10.0 0.00 0.15 0.00 85 1012.1
20240523162536 83 69 7.0 9.0 0.00 0.15 0.00 85 1012.3
20240523162022 83 63 7.0 10.0 0.00 0.15 0.00 86 1012.3
20240523161529 82 60 6.0 9.0 0.00 0.15 0.00 87 1012.4
20240523161017 82 72 6.0 8.0 0.00 0.15 0.00 88 1012.5
20240523160523 81 65 6.0 9.0 0.00 0.15 0.00 90 1012.5
20240523160030 81 33 6.0 8.0 0.00 0.15 0.00 90 1012.7
20240523155518 81 64 4.0 7.0 0.00 0.15 0.00 89 1012.7
20240523155045 81 114 6.0 8.0 0.00 0.15 0.00 89 1012.7
20240523154531 81 82 6.0 8.0 0.00 0.15 0.00 89 1012.7
20240523154020 81 139 4.0 7.0 0.00 0.15 0.00 88 1012.7
20240523153546 82 51 5.0 7.0 0.00 0.15 0.00 88 1012.7
20240523153033 82 54 5.0 8.0 0.00 0.15 0.00 87 1012.7
20240523152521 82 83 6.0 8.0 0.00 0.15 0.00 86 1012.8
20240523152029 82 81 5.0 8.0 0.00 0.15 0.00 88 1012.9
20240523151517 80 93 3.0 6.0 0.00 0.15 0.00 91 1012.9
20240523151023 79 54 4.0 6.0 0.00 0.15 0.00 92 1013.0
20240523150530 79 114 3.0 4.0 0.00 0.15 0.00 93 1013.0
20240523150018 79 63 3.0 4.0 0.00 0.15 0.00 93 1013.0
20240523145524 79 147 2.0 4.0 0.00 0.15 0.00 93 1013.0
20240523145031 79 130 2.0 4.0 0.00 0.15 0.00 93 1013.1
20240523144519 78 141 3.0 4.0 0.00 0.15 0.00 94 1013.2
20240523144026 78 116 1.0 3.0 0.00 0.15 0.00 95 1013.3
20240523143532 77 86 2.0 3.0 0.00 0.15 0.00 95 1013.6
20240523143021 77 30 1.0 4.0 0.00 0.15 0.00 96 1013.6
20240523142527 77 309 1.0 2.0 0.00 0.15 0.00 96 1013.6
20240523142035 77 309 2.0 3.0 0.00 0.15 0.00 96 1013.6
20240523141522 77 341 2.0 4.0 0.00 0.15 0.00 96 1013.7
20240523141028 77 319 3.0 5.0 0.00 0.15 0.00 96 1014.0
20240523140516 77 293 4.0 5.0 0.00 0.15 0.00 96 1014.0
20240523140023 77 217 0.0 2.0 0.00 0.15 0.00 96 1012.8
20240523135531 77 245 1.0 3.0 0.00 0.15 0.00 96 1012.7
20240523135018 77 192 3.0 7.0 0.00 0.15 0.00 96 1012.2
20240523134524 77 190 4.0 6.0 0.00 0.15 0.00 96 1011.6
20240523134031 77 160 4.0 5.0 0.00 0.15 0.00 96 1011.6
20240523133519 77 168 6.0 8.0 0.00 0.15 0.00 96 1011.1
20240523133026 77 135 5.0 8.0 0.00 0.15 0.00 96 1011.1
20240523132532 77 173 6.0 10.0 0.00 0.15 0.00 96 1011.2
20240523132021 77 164 4.0 7.0 0.00 0.15 0.00 96 1011.3
20240523131527 77 165 6.0 8.0 0.00 0.15 0.00 96 1011.2
20240523131016 77 172 7.0 10.0 0.00 0.15 0.00 96 1011.0
20240523130522 77 166 7.0 10.0 0.00 0.15 0.00 96 1011.0
20240523130029 77 150 8.0 15.0 0.00 0.15 0.00 96 1010.9
20240523125518 77 169 9.0 12.0 0.00 0.15 0.00 96 1010.9
20240523125024 77 172 8.0 13.0 0.00 0.15 0.00 96 1010.9
20240523124530 77 173 9.0 15.0 0.00 0.15 0.00 96 1010.8
20240523124018 77 161 7.0 10.0 0.00 0.15 0.00 96 1010.8
20240523123525 77 162 6.0 8.0 0.00 0.15 0.00 96 1010.7
20240523123031 77 187 7.0 10.0 0.00 0.15 0.00 96 1010.7
20240523122520 77 200 7.0 9.0 0.00 0.15 0.00 96 1010.6
20240523122026 77 158 8.0 11.0 0.00 0.15 0.00 96 1010.6
20240523121533 77 169 9.0 13.0 0.00 0.15 0.00 96 1010.4
20240523121041 77 169 9.0 12.0 0.00 0.15 0.00 96 1010.1
20240523120527 77 161 9.0 11.0 0.00 0.15 0.00 96 1010.1
20240523120016 77 172 10.0 13.0 0.00 0.15 0.00 96 1010.2
20240523115522 77 164 9.0 12.0 0.00 0.15 0.00 96 1010.3
20240523115029 77 157 8.0 11.0 0.00 0.15 0.00 96 1010.3
20240523114537 77 194 8.0 12.0 0.00 0.15 0.00 96 1010.4
20240523114023 77 147 6.0 10.0 0.00 0.15 0.00 96 1010.4
20240523113530 77 158 8.0 12.0 0.00 0.15 0.00 96 1010.3
20240523113018 77 166 8.0 11.0 0.00 0.15 0.00 96 1010.3
20240523112526 77 177 7.0 9.0 0.00 0.15 0.00 96 1010.3
20240523112031 77 166 7.0 10.0 0.00 0.15 0.00 96 1010.3
20240523111540 77 153 7.0 9.0 0.00 0.15 0.00 96 1010.3
20240523111026 77 166 7.0 12.0 0.00 0.15 0.00 96 1010.5
20240523110532 77 167 7.0 9.0 0.00 0.15 0.00 96 1010.5
20240523110022 77 188 7.0 12.0 0.00 0.15 0.00 96 1010.4
20240523105528 77 128 6.0 9.0 0.00 0.15 0.00 96 1010.4
20240523105016 77 184 6.0 7.0 0.00 0.15 0.00 96 1010.4
20240523104522 77 164 5.0 9.0 0.00 0.15 0.00 96 1010.4
20240523104029 77 175 6.0 9.0 0.00 0.15 0.00 96 1010.4
20240523103517 77 173 6.0 8.0 0.00 0.15 0.00 96 1010.1
20240523103025 77 169 5.0 8.0 0.00 0.15 0.00 96 1010.1
20240523102530 77 162 5.0 7.0 0.00 0.15 0.00 96 1010.1
20240523102018 77 161 5.0 7.0 0.00 0.15 0.00 96 1010.1
20240523101525 77 171 5.0 8.0 0.00 0.15 0.00 96 1010.1
20240523101031 76 166 5.0 8.0 0.00 0.15 0.00 96 1010.1
20240523100520 76 168 5.0 8.0 0.00 0.15 0.00 96 1010.1
20240523100026 76 176 4.0 8.0 0.00 0.15 0.00 96 1010.1
20240523095533 76 175 5.0 8.0 0.00 0.15 0.00 96 1010.1
20240523095021 76 179 5.0 7.0 0.00 0.15 0.00 96 1010.0
20240523094527 76 187 6.0 7.0 0.00 0.15 0.00 96 1009.9
20240523094016 76 163 5.0 7.0 0.00 0.15 0.00 96 1009.9
20240523093522 76 178 5.0 6.0 0.00 0.15 0.00 96 1009.9
20240523093049 76 172 5.0 7.0 0.00 0.15 0.00 96 1009.9
20240523092518 76 164 6.0 10.0 0.00 0.15 0.00 96 1009.9
20240523092024 76 171 7.0 15.0 0.00 0.15 0.00 96 1009.9
20240523091530 76 157 6.0 10.0 0.00 0.15 0.00 96 1009.9
20240523091020 76 179 7.0 9.0 0.00 0.15 0.00 96 1009.9
20240523090525 77 159 9.0 12.0 0.00 0.15 0.00 96 1009.9
20240523090033 77 181 7.0 12.0 0.00 0.15 0.00 96 1009.9
20240523085520 77 178 9.0 12.0 0.00 0.15 0.00 96 1010.0
20240523085107 77 189 7.0 11.0 0.00 0.15 0.00 96 1010.1
20240523084533 77 172 7.0 13.0 0.00 0.15 0.00 95 1010.1
20240523084021 77 152 8.0 11.0 0.00 0.15 0.00 95 1010.2
20240523083548 77 187 8.0 13.0 0.00 0.15 0.00 95 1010.4
20240523083016 77 199 8.0 11.0 0.00 0.15 0.00 95 1010.4
20240523082523 77 168 7.0 9.0 0.00 0.15 0.00 95 1010.6
20240523082029 77 189 10.0 14.0 0.00 0.15 0.00 95 1010.7
20240523081518 77 176 9.0 12.0 0.00 0.15 0.00 95 1010.8
20240523081024 77 169 9.0 12.0 0.00 0.15 0.00 95 1010.9
20240523080531 77 183 9.0 14.0 0.00 0.15 0.00 95 1010.9
20240523080019 78 181 8.0 12.0 0.00 0.15 0.00 95 1011.1
20240523075526 78 193 8.0 11.0 0.00 0.15 0.00 95 1011.2
20240523075032 78 159 10.0 12.0 0.00 0.15 0.00 95 1011.2
20240523074541 78 153 10.0 15.0 0.00 0.15 0.00 95 1011.2
20240523074047 78 174 8.0 13.0 0.00 0.15 0.00 95 1011.2
20240523073515 78 177 8.0 12.0 0.00 0.15 0.00 95 1011.3
20240523073022 78 169 7.0 10.0 0.00 0.15 0.00 95 1011.3
20240523072529 78 157 8.0 12.0 0.00 0.15 0.00 95 1011.4
20240523072017 78 159 6.0 10.0 0.00 0.15 0.00 95 1011.4
20240523071523 77 183 7.0 11.0 0.00 0.15 0.00 95 1011.4
20240523071030 77 178 7.0 11.0 0.00 0.15 0.00 95 1011.4
20240523070518 77 166 9.0 10.0 0.00 0.15 0.00 95 1011.4
20240523070025 77 158 6.0 9.0 0.00 0.15 0.00 96 1011.6
20240523065532 77 179 7.0 11.0 0.00 0.15 0.00 96 1011.6
20240523065020 77 169 7.0 10.0 0.00 0.15 0.00 96 1011.7
20240523064526 77 180 7.0 10.0 0.00 0.15 0.00 96 1011.7
20240523064033 77 164 7.0 11.0 0.00 0.15 0.00 96 1011.7
20240523063521 77 160 6.0 10.0 0.00 0.15 0.00 97 1011.7
20240523063027 77 170 6.0 8.0 0.00 0.15 0.00 97 1011.7
20240523062516 77 167 6.0 9.0 0.00 0.15 0.00 97 1011.9
20240523062022 77 164 7.0 9.0 0.00 0.15 0.00 98 1011.9
20240523061549 76 169 6.0 9.0 0.00 0.15 0.00 99 1011.9
20240523061017 75 162 6.0 10.0 0.00 0.15 0.00 99 1011.9
20240523060524 73 0.0 2.0 0.00 0.15 0.00 99 1011.9
20240523060030 73 10 0.0 2.0 0.00 0.15 0.00 99 1011.8
20240523055519 73 10 1.0 2.0 0.00 0.15 0.00 99 1011.8
20240523055045 73 0.0 0.0 0.00 0.15 0.00 99 1011.8
20240523054531 73 0.0 0.0 0.00 0.15 0.00 99 1011.8
20240523054020 73 0.0 0.0 0.00 0.15 0.00 99 1011.8
20240523053526 73 23 1.0 2.0 0.00 0.15 0.00 99 1011.8
20240523053053 73 11 2.0 3.0 0.00 0.15 0.00 99 1011.8
20240523052521 73 344 2.0 3.0 0.00 0.15 0.00 99 1011.8
20240523052028 73 320 2.0 3.0 0.00 0.15 0.00 99 1011.8
20240523051516 73 338 2.0 3.0 0.00 0.15 0.00 99 1011.8
20240523051023 73 345 1.0 2.0 0.00 0.15 0.00 99 1011.8
20240523050529 73 53 1.0 2.0 0.00 0.15 0.00 99 1011.8
20240523050038 72 34 2.0 3.0 0.00 0.15 0.00 99 1011.7
20240523045524 72 110 2.0 3.0 0.00 0.15 0.15 99 1011.7
20240523045031 72 104 2.0 3.0 0.00 0.15 0.15 99 1011.7
20240523044519 72 167 1.0 3.0 0.00 0.15 0.15 99 1011.7
20240523044025 72 103 2.0 3.0 0.00 0.15 0.15 99 1011.7
20240523043532 72 114 2.0 3.0 0.00 0.15 0.15 99 1011.6
20240523043025 71 134 2.0 4.0 0.00 0.15 0.15 99 1011.6
20240523042527 71 96 2.0 4.0 0.00 0.15 0.15 99 1011.6
20240523042033 71 109 2.0 3.0 0.00 0.15 0.15 99 1011.6
20240523041521 71 111 2.0 3.0 0.00 0.15 0.15 99 1011.6
20240523041028 71 92 2.0 3.0 0.00 0.15 0.15 99 1011.6
20240523040516 71 83 1.0 2.0 0.01 0.15 0.15 99 1011.6
20240523040023 71 65 1.0 3.0 0.01 0.15 0.15 99 1011.6
20240523035529 71 55 2.0 3.0 0.01 0.15 0.15 99 1011.6
20240523035017 71 22 2.0 4.0 0.01 0.15 0.15 99 1011.5
20240523034524 71 4 2.0 3.0 0.01 0.15 0.15 99 1011.3
20240523034031 70 42 2.0 4.0 0.01 0.15 0.15 99 1011.3
20240523033540 70 55 3.0 4.0 0.01 0.15 0.15 99 1011.3
20240523033046 70 27 3.0 4.0 0.01 0.15 0.15 99 1011.3
20240523032553 70 8 3.0 4.0 0.01 0.15 0.15 99 1010.9
20240523032020 70 340 2.0 3.0 0.01 0.15 0.15 99 1010.8
20240523031527 70 38 1.0 3.0 0.01 0.15 0.15 99 1010.8
20240523031016 70 50 3.0 5.0 0.01 0.15 0.15 99 1010.8
20240523030522 70 34 3.0 6.0 0.00 0.14 0.14 99 1010.8
20240523030029 71 18 4.0 6.0 0.00 0.14 0.14 99 1010.2
20240523025518 71 40 4.0 5.0 0.00 0.14 0.14 99 1010.1
20240523025023 71 50 3.0 4.0 0.00 0.14 0.14 99 1010.0
20240523024550 71 59 3.0 5.0 0.00 0.14 0.14 99 1009.9
20240523024018 71 355 4.0 5.0 0.00 0.14 0.14 99 1009.9
20240523023525 71 36 4.0 5.0 0.00 0.14 0.14 99 1009.8
20240523023032 71 66 3.0 5.0 0.00 0.14 0.14 99 1009.8
20240523022540 71 113 2.0 3.0 0.00 0.14 0.14 99 1009.8
20240523022026 71 108 2.0 4.0 0.00 0.14 0.14 99 1009.9
20240523021533 71 109 4.0 6.0 0.01 0.14 0.14 99 1009.9
20240523021021 71 134 4.0 6.0 0.11 0.14 0.14 99 1010.0
20240523020608 71 94 4.0 5.0 0.14 0.14 0.14 99 1010.0
20240523020015 71 39 5.0 7.0 0.14 0.14 0.14 99 1010.3
20240523015523 71 42 4.0 7.0 0.14 0.14 0.14 98 1010.4
20240523015029 71 52 6.0 8.0 0.14 0.14 0.14 98 1010.3
20240523014537 71 28 5.0 6.0 0.14 0.14 0.14 97 1010.1
20240523014023 71 45 5.0 6.0 0.14 0.14 0.14 97 1010.1
20240523013530 71 73 5.0 6.0 0.14 0.14 0.14 96 1010.0
20240523013026 71 0 5.0 6.0 0.14 0.14 0.14 96 1010.0
20240523012532 71 20 5.0 7.0 0.14 0.14 0.14 95 1009.7
20240523012020 71 348 4.0 6.0 0.14 0.14 0.14 95 1009.6
20240523011528 72 13 5.0 7.0 0.13 0.13 0.13 92 1009.7
20240523011054 73 18 6.0 9.0 0.03 0.03 0.03 88 1010.0
20240523010523 75 341 7.0 9.0 0.00 0.00 0.00 84 1010.0
20240523010028 75 344 7.0 10.0 0.00 0.00 0.00 84 1009.8
20240523005516 75 348 9.0 11.0 0.00 0.00 0.00 84 1009.8
20240523005023 75 350 9.0 12.0 0.00 0.00 0.00 84 1009.7
20240523004530 75 12 11.0 17.0 0.00 0.00 0.00 85 1009.6
20240523004017 75 2 10.0 15.0 0.00 0.00 0.00 85 1009.6
20240523003524 76 11 9.0 13.0 0.00 0.00 0.00 84 1009.6
20240523003031 77 352 13.0 18.0 0.00 0.00 0.00 83 1009.6
20240523002540 80 5 14.0 21.0 0.00 0.00 0.00 78 1008.9
20240523002027 85 359 10.0 15.0 0.00 0.00 0.00 71 1008.6
20240523001532 89 104 4.0 11.0 0.00 0.00 0.00 68 1008.6
20240523001041 89 127 4.0 6.0 0.00 0.00 0.00 67 1008.5
20240523000547 89 143 3.0 5.0 0.00 0.00 0.00 67 1008.5
20240523000015 90 156 4.0 7.0 0.00 0.00 0.00 67 1008.1
20240522235522 90 164 4.0 6.0 0.00 0.00 0.00 67 1008.0
20240522235029 90 166 5.0 8.0 0.00 0.00 0.00 68 1007.9
20240522234517 90 167 5.0 7.0 0.00 0.00 0.00 68 1007.8
20240522234023 90 175 6.0 11.0 0.00 0.00 0.00 68 1007.8
20240522233530 89 173 5.0 9.0 0.00 0.00 0.00 68 1007.5
20240522233018 89 160 8.0 11.0 0.00 0.00 0.00 68 1007.5
20240522232525 89 195 6.0 9.0 0.00 0.00 0.00 68 1007.7
20240522232031 89 164 7.0 11.0 0.00 0.00 0.00 68 1007.8
20240522231520 89 184 7.0 11.0 0.00 0.00 0.00 69 1007.7
20240522231026 89 169 5.0 7.0 0.00 0.00 0.00 69 1007.6
20240522230558 89 193 6.0 10.0 0.00 0.00 0.00 69 1007.6
20240522230021 89 190 8.0 11.0 0.00 0.00 0.00 69 1007.1
20240522225529 89 159 10.0 14.0 0.00 0.00 0.00 69 1007.1
20240522225017 89 169 7.0 10.0 0.00 0.00 0.00 68 1007.2
20240522224528 89 179 7.0 10.0 0.00 0.00 0.00 68 1007.4
20240522224029 89 159 7.0 11.0 0.00 0.00 0.00 68 1007.4
20240522223517 89 170 8.0 12.0 0.00 0.00 0.00 68 1007.5
20240522223024 89 160 9.0 11.0 0.00 0.00 0.00 67 1007.5
20240522222535 74 0.0 0.0 0.00 0.00 0.00 47 1006.6
20240522222531 89 174 7.0 10.0 0.00 0.00 0.00 67 1007.5
20240522222028 74 0.0 0.0 0.00 0.00 0.00 47 1006.6
20240522222019 89 176 7.0 9.0 0.00 0.00 0.00 67 1007.5
20240522221543 75 0.0 0.0 0.00 0.00 0.00 47 1006.4
20240522221023 90 170 8.0 11.0 0.00 0.00 0.00 66 1007.3
20240522221018 75 0.0 0.0 0.00 0.00 0.00 47 1006.4
20240522220556 75 0.0 0.0 0.00 0.00 0.00 47 1006.4
20240522220550 90 148 7.0 11.0 0.00 0.00 0.00 66 1007.3
20240522220027 75 0.0 0.0 0.00 0.00 0.00 47 1006.6
20240522220017 90 185 9.0 13.0 0.00 0.00 0.00 66 1007.5
20240522215524 90 182 9.0 12.0 0.00 0.00 0.00 66 1007.6
20240522215031 90 180 7.0 11.0 0.00 0.00 0.00 66 1007.4
20240522215022 76 0.0 0.0 0.00 0.00 0.00 49 1006.5
20240522214533 76 0.0 0.0 0.00 0.00 0.00 49 1006.5
20240522214519 90 179 7.0 11.0 0.00 0.00 0.00 66 1007.3
20240522214028 76 0.0 0.0 0.00 0.00 0.00 46 1006.4
20240522213520 76 0.0 0.0 0.00 0.00 0.00 45 1006.4
20240522213026 90 159 11.0 16.0 0.00 0.00 0.00 65 1007.2
20240522212533 91 160 10.0 15.0 0.00 0.00 0.00 65 1007.5
20240522212025 77 0.0 0.0 0.00 0.00 0.00 45 1006.6
20240522212021 91 173 10.0 13.0 0.00 0.00 0.00 64 1007.7
20240522211527 91 159 8.0 12.0 0.00 0.00 0.00 64 1007.8
20240522211016 91 164 9.0 12.0 0.00 0.00 0.00 65 1008.1
20240522210522 91 187 10.0 16.0 0.00 0.00 0.00 64 1008.1
20240522210030 91 141 10.0 16.0 0.00 0.00 0.00 64 1008.2
20240522205518 92 176 9.0 13.0 0.00 0.00 0.00 64 1008.2
20240522205024 91 198 9.0 13.0 0.00 0.00 0.00 64 1008.4
20240522204530 90 169 9.0 14.0 0.00 0.00 0.00 65 1008.5
20240522204019 92 191 10.0 15.0 0.00 0.00 0.00 64 1008.5
20240522203525 92 167 9.0 12.0 0.00 0.00 0.00 63 1008.5
20240522203033 92 177 8.0 15.0 0.00 0.00 0.00 66 1008.5
20240522202540 91 196 6.0 9.0 0.00 0.00 0.00 68 1008.7
20240522202108 90 181 9.0 13.0 0.00 0.00 0.00 68 1008.7
20240522201533 90 186 10.0 16.0 0.00 0.00 0.00 68 1008.7
20240522201022 90 191 10.0 13.0 0.00 0.00 0.00 68 1008.7
20240522200528 90 182 8.0 11.0 0.00 0.00 0.00 67 1008.7
20240522200017 90 189 9.0 13.0 0.00 0.00 0.00 68 1009.1
20240522195523 90 180 11.0 15.0 0.00 0.00 0.00 67 1009.1
20240522195030 90 163 10.0 16.0 0.00 0.00 0.00 68 1009.3
20240522194518 90 190 8.0 13.0 0.00 0.00 0.00 68 1009.4
20240522194025 90 178 8.0 13.0 0.00 0.00 0.00 69 1009.5
20240522193531 89 180 10.0 15.0 0.00 0.00 0.00 70 1009.8
20240522193020 89 166 10.0 15.0 0.00 0.00 0.00 71 1009.8
20240522192546 88 175 8.0 11.0 0.00 0.00 0.00 72 1010.0
20240522192053 88 191 9.0 14.0 0.00 0.00 0.00 72 1010.1
20240522191521 88 171 10.0 14.0 0.00 0.00 0.00 72 1010.2
20240522191027 88 196 9.0 13.0 0.00 0.00 0.00 73 1010.4
20240522190516 89 162 10.0 15.0 0.00 0.00 0.00 72 1010.4
20240522190022 88 168 9.0 11.0 0.00 0.00 0.00 73 1010.6
20240522185550 88 161 9.0 15.0 0.00 0.00 0.00 73 1010.7
20240522185017 87 154 7.0 10.0 0.00 0.00 0.00 74 1010.8
20240522184524 87 137 9.0 12.0 0.00 0.00 0.00 75 1010.9
20240522184030 88 182 9.0 12.0 0.00 0.00 0.00 75 1010.9
20240522183538 87 174 6.0 8.0 0.00 0.00 0.00 75 1011.1
20240522183025 87 184 7.0 11.0 0.00 0.00 0.00 74 1011.1
20240522182531 87 206 8.0 12.0 0.00 0.00 0.00 76 1011.1
20240522182020 87 174 7.0 12.0 0.00 0.00 0.00 76 1011.1
20240522181526 88 180 8.0 11.0 0.00 0.00 0.00 74 1011.2
20240522181033 87 165 8.0 12.0 0.00 0.00 0.00 75 1011.3
20240522180521 86 181 7.0 11.0 0.00 0.00 0.00 75 1011.3
20240522180048 86 185 8.0 12.0 0.00 0.00 0.00 75 1011.5
20240522175536 87 171 8.0 12.0 0.00 0.00 0.00 75 1011.5
20240522175024 88 183 7.0 11.0 0.00 0.00 0.00 75 1011.4
20240522174530 87 173 8.0 11.0 0.00 0.00 0.00 75 1011.3
20240522174017 86 184 9.0 13.0 0.00 0.00 0.00 77 1011.3
20240522173524 86 174 9.0 10.0 0.00 0.00 0.00 77 1011.6
20240522173031 86 182 10.0 13.0 0.00 0.00 0.00 77 1011.6
20240522172540 87 134 7.0 11.0 0.00 0.00 0.00 76 1011.5
20240522172025 86 155 7.0 11.0 0.00 0.00 0.00 78 1011.5
20240522171532 86 167 9.0 14.0 0.00 0.00 0.00 77 1011.5
20240522171020 86 173 8.0 11.0 0.00 0.00 0.00 79 1011.5
20240522170527 85 158 9.0 14.0 0.00 0.00 0.00 78 1011.5
20240522170033 86 180 10.0 15.0 0.00 0.00 0.00 78 1011.7
20240522165521 86 148 10.0 15.0 0.00 0.00 0.00 78 1011.7
20240522165028 86 187 10.0 15.0 0.00 0.00 0.00 77 1011.7
20240522164536 86 191 10.0 14.0 0.00 0.00 0.00 78 1011.7